Tim Hofmann

Chefscout - VfB Stuttgart
7 Nov 2027
Sonntag
Verarbeitung

Persönlichkeit

Anpassungsfähigkeit (8) Ehrgeiz (8) Kontroverse (6) Loyalität (8) Druck (12) Professionalität (19) Fairness (20) Temperament (15)

Profil

Trainerstil Demokratisch
Lizenz Kontinentale B
Entschlossenheit 12
Menschenführung 15
Motivation 7
Disziplin 8
Arbeitszufriedenheit
100%
Ermüdung
0%
Rolle Chefscout
Gehalt 36.0K p/W
Vertrag 14.03.2030

Leistung

Verhalten Gut
Trainingseffektivität
54%
Spielerentwicklung
70%
Verletzungsprävention
30%
Taktische Umsetzung
75%

Aktuell beobachtet

112
Spieler Verein Status Fähigkeit Vertrauen Beobachtet Zuletzt beobachtet Letzte Stimme
Mads Bomholt Rosenborg Aktiv 99 / 125 40% 6 30.08.2027 -
Corsin Konietzke Basel Aktiv 121 / 115 40% 1 30.08.2027 -
John Mellberg Red Bull Salzburg Aktiv 116 / 124 40% 1 30.08.2027 -
Harry Amass Manchester United Aktiv 141 / 151 40% 2 29.08.2027 -
Jorrel Hato Chelsea Aktiv 148 / 160 40% 1 29.08.2027 -
Ayyoub Bouaddi Manchester City Aktiv 136 / 149 40% 1 28.08.2027 -
Givairo Read Feyenoord Aktiv 146 / 149 40% 1 28.08.2027 -
Felipe Chávez Bayern Munich Aktiv 117 / 139 40% 1 28.08.2027 -
Dayann Methalie Sunderland Aktiv 143 / 138 40% 5 27.08.2027 -
Andrej Bačanin Basel Aktiv 114 / 125 40% 1 27.08.2027 -
Celías Ingenthron Racing Club Aktiv 115 / 130 40% 1 24.08.2027 -
Lucas Bergvall Tottenham Aktiv 153 / 161 40% 1 24.08.2027 -
Adrian Skogmar Malmo FF Aktiv 113 / 113 40% 1 23.08.2027 -
Mats Rots TSG Hoffenheim Aktiv 129 / 119 40% 1 23.08.2027 -
Chris Rigg Sunderland Aktiv 131 / 151 40% 9 22.08.2027 -
Alpha Touré FC Metz Aktiv 114 / 115 40% 3 22.08.2027 -
Noa Mikić Dinamo Zagreb Aktiv 104 / 122 40% 1 20.08.2027 -
Stephen Acquah FC Nordsjaelland Aktiv 108 / 114 40% 1 20.08.2027 -
Abdelhamid Ait Boudlal Stade Rennais Aktiv 126 / 130 40% 2 19.08.2027 -
Andrés Cuenca Como Aktiv 115 / 117 40% 1 19.08.2027 -
Fellipe Jack Como Aktiv 107 / 126 40% 3 18.08.2027 -
Tobias Slotsager Hellas Verona Aktiv 115 / 126 40% 3 18.08.2027 -
Andrej Sestak FK Senica Aktiv 107 / 101 40% 2 18.08.2027 -
Valente Pierani Estudiantes Aktiv 115 / 130 40% 6 14.08.2027 -
Brandon Powell Blackburn Rovers Aktiv 119 / 122 40% 6 14.08.2027 -
Yoram Zague Paris Saint-Germain Aktiv 130 / 120 40% 2 13.08.2027 -
Amir Mohammad Razzaghinia Esteghlal Aktiv 125 / 114 40% 3 10.08.2027 -
Freddie Simmonds Brighton Aktiv 103 / 112 40% 2 09.08.2027 -
Aarón Martín Al-Qadisiyah Aktiv 115 / 125 40% 4 08.08.2027 -
Bahmed Deuff FC Metz Aktiv 118 / 123 40% 1 08.08.2027 -
Rabby Nzingoula West Bromwich Albion Aktiv 130 / 121 40% 5 04.08.2027 -
Dylan Gorosito Boca Juniors Aktiv 110 / 117 40% 2 04.08.2027 -
Somto Boniface Ipswich Town Aktiv 105 / 123 40% 3 01.08.2027 -
Juan Morán Godoy Cruz Aktiv 109 / 118 40% 1 30.07.2027 -
Yaghoub Barage Persepolis Aktiv 115 / 95 40% 1 30.07.2027 -
Juma Bah Manchester City Aktiv 134 / 122 40% 1 30.07.2027 -
George Abbott Tottenham Aktiv 114 / 127 40% 3 29.07.2027 -
Genesis Antwi Chelsea Aktiv 107 / 125 40% 2 27.07.2027 -
Jarvis Thornton Sheffield Wednesday Aktiv 103 / 114 40% 2 26.07.2027 -
Ibrahim Coulibaly Clermont Foot Aktiv 113 / 117 40% 1 23.07.2027 -
Sergiu Perciun Torino Aktiv 110 / 105 40% 1 23.07.2027 -
Bung Meng Freimann Luzern Aktiv 109 / 108 40% 8 20.07.2027 -
Yarin Levi Maccabi Haifa Aktiv 105 / 124 40% 3 19.07.2027 -
Niccolò Fortini Fiorentina Aktiv 127 / 136 40% 1 17.07.2027 -
Kaick FC Dallas Aktiv 92 / 120 40% 1 17.07.2027 -
Augusto Bando Ascoli Aktiv 107 / 105 40% 1 17.07.2027 -
Matías Schulz Unión de Santa Fe Aktiv 101 / 107 40% 1 16.07.2027 -
Vincent Burlet Cracovia Aktiv 99 / 105 40% 3 13.07.2027 -
Mathys Angély VfL Wolfsburg Aktiv 118 / 121 40% 1 11.07.2027 -
Thiago Helguera Braga Aktiv 123 / 117 40% 2 09.07.2027 -
Axel Tape Bayer Leverkusen Aktiv 119 / 130 40% 1 08.07.2027 -
Souza Tottenham Abgelehnt 120 / 138 40% 2 01.07.2027 Mehr Infos nötig
Almugera Kabar Borussia Dortmund Aktiv 126 / 124 40% 1 01.07.2027 -
Morgan Dala New York Red Bulls Aktiv 117 / 128 40% 1 01.07.2027 -
Sabil Hansen Randers Aktiv 96 / 95 40% 4 29.06.2027 -
Yasin Özcan Aston Villa Aktiv 106 / 109 40% 1 29.06.2027 -
Marino Skelin Hajduk Split Aktiv 101 / 133 40% 1 28.06.2027 -
Jonathan Norbye Haugesund Aktiv 107 / 107 40% 2 26.06.2027 -
Alejandro Almaraz Oviedo Aktiv 109 / 117 40% 2 26.06.2027 -
Daniel Banjaqui Benfica Aktiv 121 / 122 40% 2 23.06.2027 -
Dylan Lawlor Cardiff City Aktiv 115 / 119 40% 1 23.06.2027 -
Lucas Jetten Cambuur Aktiv 106 / 124 40% 1 23.06.2027 -
Salvador Blopá Sporting CP Abgelehnt 119 / 127 40% 3 21.06.2027 Ablehnen
Daniel Kelly West Ham United Aktiv 111 / 119 40% 1 21.06.2027 -
Miguel Figueiredo Benfica Aktiv 115 / 125 40% 1 21.06.2027 -
Mattia Mannini Juve Stabia Aktiv 110 / 122 40% 1 20.06.2027 -
Yassine Khalifi Charleroi Aktiv 102 / 113 40% 1 20.06.2027 -
Ezra Mayers West Ham United Aktiv 117 / 136 40% 1 20.06.2027 -
Jaydee Canvot Crystal Palace Aktiv 140 / 147 40% 2 19.06.2027 -
Malick Yalcouyé Brighton Aktiv 126 / 126 40% 2 19.06.2027 -
Juan Cruz Cortazzo Gimnasia La Plata Aktiv 115 / 115 40% 1 19.06.2027 -
Jan Paluska Viktoria Plzen Aktiv 118 / 124 40% 2 16.06.2027 -
Ishé Samuels-Smith Chelsea Aktiv 123 / 134 40% 1 11.06.2027 -
Anton Kade FC Augsburg Verloren 127 / 140 69% 1 01.06.2027 Befürworten
Kees Smit AZ Aktiv 138 / 152 40% 1 31.01.2027 -
José Pachuca Puebla Aktiv 106 / 126 40% 1 31.01.2027 -
Yusi Alavés Aktiv 136 / 137 40% 3 30.01.2027 -
Ollie Scarles West Ham United Aktiv 126 / 126 40% 3 30.01.2027 -
Arjan Malić Sturm Graz Aktiv 114 / 132 40% 4 29.01.2027 -
Jonas Harder Basel Aktiv 108 / 112 40% 1 29.01.2027 -
Saël Kumbedi VfL Wolfsburg Aktiv 139 / 141 40% 3 28.01.2027 -
Illaijh de Ruijter ADO Den Haag Aktiv 111 / 114 40% 2 27.01.2027 -
Samuel Marques Grasshopper Aktiv 109 / 115 40% 1 19.01.2027 -
Pau Navarro Villarreal Aktiv 138 / 153 40% 1 19.01.2027 -
Bence Dárdai VfL Wolfsburg Aktiv 124 / 133 40% 2 15.01.2027 -
Milan Roganović Partizan Aktiv 99 / 105 40% 1 15.01.2027 -
Joaquin Seys Club Brugge Aktiv 133 / 138 40% 3 12.01.2027 -
Caleb Yirenkyi Coventry City Aktiv 133 / 131 40% 1 12.01.2027 -
Jorge Salinas Racing Santander Aktiv 131 / 128 40% 1 11.01.2027 -
Elias Baum Eintracht Frankfurt Aktiv 128 / 139 40% 1 10.01.2027 -
Ibrahim Maza Bayer Leverkusen Aktiv 135 / 142 40% 1 10.01.2027 -
Juan Pablo De la Reta Maipú Aktiv 103 / 105 40% 2 07.01.2027 -
Ezechiel Banzuzi RB Leipzig Aktiv 128 / 147 40% 3 06.01.2027 -
Kyriani Sabbe Club Brugge Aktiv 112 / 118 40% 1 02.01.2027 -
Breno Bidon Corinthians Aktiv 122 / 126 40% 2 01.01.2027 -
Kacper Urbański Gornik Zabrze Aktiv 114 / 137 40% 2 31.08.2026 Mehr Infos nötig
Mbekezeli Mbokazi Chicago Fire Aktiv 125 / 113 40% 2 30.08.2026 -
Lucas Agazzi Benfica Aktiv 112 / 119 40% 1 30.08.2026 -
Alex Matos Burnley Aktiv 116 / 120 40% 1 26.08.2026 -
Ignacio Perruzzi San Lorenzo Aktiv 123 / 130 40% 1 26.08.2026 -
Oscar Højlund Eintracht Frankfurt Aktiv 130 / 144 40% 1 25.08.2026 -
Javier Mena Villarreal Aktiv 104 / 125 40% 1 24.08.2026 -
Dejan Radonjić SV Ried Aktiv 113 / 118 40% 1 18.08.2026 -
Elías Báez Atlanta United FC Aktiv 133 / 123 40% 1 18.08.2026 -
Jonas Hofmann Bayer Leverkusen Aktiv 130 / 126 65% 1 17.08.2026 Befürworten
Axel Frugone Defensor Sporting Aktiv 111 / 125 40% 1 14.08.2026 -
El Chadaille Bitshiabu Union Berlin Aktiv 137 / 138 40% 1 13.08.2026 -
Furkan Demir Rapid Wien Aktiv 116 / 120 40% 1 13.08.2026 -
Jon Martín Real Sociedad Aktiv 125 / 133 40% 1 11.08.2026 -
Eliás Montiel Athletic Bilbao Aktiv 126 / 133 40% 1 11.08.2026 -
Boris Matić Wolfsberger AC Aktiv 115 / 114 40% 1 10.08.2026 -
Dean Henderson Crystal Palace Aktiv 146 / 156 40% 1 01.08.2026 -